Lochgelly, West Virginia
Current Conditions -  °F | °C
As of 10:33 AM on Thursday 23 Oct 2014 (Local Time) from KBKW Reporting Station
Overcast Overcast  
Wind Chill: 41°   Ceiling: 1000
Heat Index: 45°   Visibility: 10mi
Dew Point: 40°   Wind: 7mph
Humidity: 82%   Direction: 330°NNW
Pressure: 30.18"   Gusts: NA
Location:  38.01°N, 81.15°W
Report Text: KBKW 231433Z AUTO 33006KT 10SM BKN010 OVC027 07/04 A3018 RMK AO2 T00720044 TSNO
Loading
Personal Weather Stations






























Interactive Weather Map
Tropical Storm Tracking
New forecast layout! Learn more

10-Day Weather Forecast

Advertisements
Track Severe Weather on mobile